createdAt,value
2023-05-13T00:02:31.692Z,100458.03
2023-05-13T00:05:33.552Z,100455.72
2023-05-13T00:08:37.055Z,100445.84
2023-05-13T00:11:39.085Z,100445.84
2023-05-13T00:14:41.035Z,100442.47
2023-05-13T00:17:42.731Z,100438.00
2023-05-13T00:20:44.457Z,100435.38
2023-05-13T00:23:47.603Z,100437.06
2023-05-13T00:26:49.374Z,100438.31
2023-05-13T00:29:51.076Z,100434.94
2023-05-13T00:32:53.166Z,100432.63
2023-05-13T00:35:54.969Z,100434.47
2023-05-13T00:38:58.213Z,100430.00
2023-05-13T00:41:59.895Z,100438.78
2023-05-13T00:45:01.594Z,100439.06
2023-05-13T00:48:06.214Z,100437.38
2023-05-13T00:51:08.004Z,100433.69
2023-05-13T00:54:11.384Z,100428.91
2023-05-13T00:57:13.514Z,100430.75
2023-05-13T01:00:16.328Z,100432.59
2023-05-13T01:03:24.164Z,100431.38
2023-05-13T01:06:33.209Z,100422.28
2023-05-13T01:09:45.265Z,100436.44
2023-05-13T01:12:48.730Z,100427.06
2023-05-13T01:15:56.613Z,100428.59
2023-05-13T01:19:05.393Z,100428.56
2023-05-13T01:22:08.662Z,100436.91
2023-05-13T01:25:11.412Z,100434.56
2023-05-13T01:28:13.691Z,100434.09
2023-05-13T01:31:19.395Z,100431.63
2023-05-13T01:34:22.723Z,100435.50
2023-05-13T01:37:26.049Z,100432.34
2023-05-13T01:40:32.703Z,100436.34
2023-05-13T01:43:39.332Z,100443.75
2023-05-13T01:46:43.449Z,100447.97
2023-05-13T01:49:45.779Z,100445.38
2023-05-13T01:52:48.952Z,100446.00
2023-05-13T01:55:50.772Z,100448.81
2023-05-13T01:58:52.513Z,100445.88
2023-05-13T02:01:54.254Z,100447.56
2023-05-13T02:04:56.003Z,100450.38
2023-05-13T02:07:59.286Z,100456.69
2023-05-13T02:11:01.119Z,100451.59
2023-05-13T02:14:03.988Z,100459.59
2023-05-13T02:17:05.715Z,100464.69
2023-05-13T02:20:09.012Z,100462.69
2023-05-13T02:23:12.405Z,100455.44
2023-05-13T02:26:14.196Z,100455.91
2023-05-13T02:29:15.869Z,100452.81
2023-05-13T02:32:17.519Z,100459.28
2023-05-13T02:35:19.442Z,100456.34
2023-05-13T02:38:22.736Z,100457.13
2023-05-13T02:41:24.687Z,100439.56
2023-05-13T02:44:26.651Z,100450.03
2023-05-13T02:47:28.606Z,100439.41
2023-05-13T02:50:35.395Z,100441.25
2023-05-13T02:53:39.230Z,100441.88
2023-05-13T02:57:00.995Z,100442.03
2023-05-13T03:00:04.599Z,100440.19
2023-05-13T03:03:06.413Z,100441.88
2023-05-13T03:06:08.421Z,100441.88
2023-05-13T03:09:11.383Z,100441.69
2023-05-13T03:12:13.388Z,100438.13
2023-05-13T03:15:16.490Z,100438.75
2023-05-13T03:18:18.783Z,100428.88
2023-05-13T03:21:20.995Z,100425.94
2023-05-13T03:24:24.386Z,100435.06
2023-05-13T03:27:26.688Z,100444.03
2023-05-13T03:30:28.686Z,100437.06
2023-05-13T03:33:39.465Z,100446.63
2023-05-13T03:36:42.462Z,100449.69
2023-05-13T03:39:45.919Z,100450.03
2023-05-13T03:42:47.936Z,100450.03
2023-05-13T03:45:51.406Z,100448.97
2023-05-13T03:48:55.975Z,100455.25
2023-05-13T03:51:58.129Z,100448.16
2023-05-13T03:55:01.358Z,100457.09
2023-05-13T03:58:12.336Z,100458.34
2023-05-13T04:01:13.929Z,100457.41
2023-05-13T04:04:15.786Z,100461.13
2023-05-13T04:07:17.580Z,100461.41
2023-05-13T04:10:20.991Z,100460.81
2023-05-13T04:13:23.012Z,100464.84
2023-05-13T04:16:25.626Z,100473.16
2023-05-13T04:19:27.460Z,100479.66
2023-05-13T04:22:29.141Z,100481.19
2023-05-13T04:25:32.195Z,100487.69
2023-05-13T04:28:34.825Z,100485.69
2023-05-13T04:31:37.393Z,100479.66
2023-05-13T04:34:39.221Z,100486.47
2023-05-13T04:37:41.085Z,100479.81
2023-05-13T04:40:48.165Z,100480.44
2023-05-13T04:43:55.435Z,100488.75
2023-05-13T04:46:57.157Z,100493.06
2023-05-13T04:49:58.999Z,100486.75
2023-05-13T04:53:01.515Z,100492.59
2023-05-13T04:56:06.101Z,100505.22
2023-05-13T04:59:08.696Z,100504.16
2023-05-13T05:02:10.651Z,100502.91
2023-05-13T05:05:12.937Z,100504.75
2023-05-13T05:08:14.643Z,100508.66
2023-05-13T05:11:17.887Z,100497.84
2023-05-13T05:14:20.215Z,100504.06
2023-05-13T05:17:23.937Z,100506.97
2023-05-13T05:20:25.771Z,100513.94
2023-05-13T05:23:30.524Z,100513.44
2023-05-13T05:26:33.701Z,100526.72
2023-05-13T05:29:36.581Z,100516.84
2023-05-13T05:32:38.643Z,100528.28
2023-05-13T05:35:41.751Z,100516.72
2023-05-13T05:38:47.307Z,100523.81
2023-05-13T05:41:50.844Z,100530.44
2023-05-13T05:44:53.199Z,100527.50
2023-05-13T05:47:55.367Z,100530.41
2023-05-13T05:50:57.511Z,100533.50
2023-05-13T05:54:03.663Z,100533.34
2023-05-13T05:57:07.394Z,100536.28
2023-05-13T06:00:10.479Z,100543.84
2023-05-13T06:03:16.778Z,100540.09
2023-05-13T06:06:18.876Z,100532.03
2023-05-13T06:09:20.529Z,100536.63
2023-05-13T06:12:25.869Z,100533.91
2023-05-13T06:15:27.645Z,100533.84
2023-05-13T06:18:29.412Z,100544.56
2023-05-13T06:21:32.094Z,100536.81
2023-05-13T06:24:33.869Z,100533.50
2023-05-13T06:27:37.333Z,100526.09
2023-05-13T06:30:39.156Z,100526.13
2023-05-13T06:33:40.974Z,100523.59
2023-05-13T06:36:43.427Z,100524.00
2023-05-13T06:39:45.595Z,100524.63
2023-05-13T06:42:49.128Z,100530.81
2023-05-13T06:46:03.534Z,100534.72
2023-05-13T06:49:05.385Z,100533.88
2023-05-13T06:52:08.702Z,100528.56
2023-05-13T06:55:11.125Z,100534.56
2023-05-13T06:58:14.175Z,100528.91
2023-05-13T07:01:16.766Z,100526.53
2023-05-13T07:04:18.648Z,100520.34
2023-05-13T07:07:20.577Z,100527.97
2023-05-13T07:10:22.805Z,100527.47
2023-05-13T07:13:26.406Z,100527.97
2023-05-13T07:16:28.100Z,100523.19
2023-05-13T07:19:29.901Z,100531.69
2023-05-13T07:22:31.718Z,100531.34
2023-05-13T07:25:33.722Z,100522.50
2023-05-13T07:28:36.858Z,100524.13
2023-05-13T07:31:38.584Z,100523.25
2023-05-13T07:34:40.334Z,100535.19
2023-05-13T07:37:42.042Z,100533.38
2023-05-13T07:40:44.039Z,100530.88
2023-05-13T07:43:47.285Z,100533.22
2023-05-13T07:46:49.412Z,100525.16
2023-05-13T07:49:51.125Z,100530.84
2023-05-13T07:52:52.911Z,100530.16
2023-05-13T07:55:54.661Z,100540.47
2023-05-13T07:58:57.964Z,100538.81
2023-05-13T08:01:59.806Z,100531.63
2023-05-13T08:05:01.659Z,100530.78
2023-05-13T08:08:04.454Z,100526.16
2023-05-13T08:11:06.151Z,100519.88
2023-05-13T08:14:09.366Z,100524.06
2023-05-13T08:17:11.103Z,100528.50
2023-05-13T08:20:14.910Z,100528.75
2023-05-13T08:23:17.087Z,100522.47
2023-05-13T08:26:18.818Z,100527.09
2023-05-13T08:29:21.984Z,100521.78
2023-05-13T08:32:23.846Z,100523.38
2023-05-13T08:35:26.128Z,100519.88
2023-05-13T08:38:28.017Z,100516.88
2023-05-13T08:41:31.765Z,100516.19
2023-05-13T08:44:39.457Z,100520.22
2023-05-13T08:47:51.088Z,100520.03
2023-05-13T08:50:52.985Z,100519.13
2023-05-13T08:53:55.598Z,100523.88
2023-05-13T08:56:57.367Z,100526.81
2023-05-13T09:00:00.646Z,100522.97
2023-05-13T09:03:02.819Z,100520.25
2023-05-13T09:06:05.247Z,100524.22
2023-05-13T09:09:07.133Z,100527.47
2023-05-13T09:12:09.141Z,100536.84
2023-05-13T09:15:14.440Z,100535.13
2023-05-13T09:18:18.709Z,100525.59
2023-05-13T09:21:25.938Z,100526.00
2023-05-13T09:24:27.929Z,100536.22
2023-05-13T09:27:38.202Z,100525.44
2023-05-13T09:30:46.466Z,100521.38
2023-05-13T09:33:52.392Z,100526.66
2023-05-13T09:37:00.449Z,100515.41
2023-05-13T09:40:03.794Z,100520.13
2023-05-13T09:43:07.392Z,100516.72
2023-05-13T09:46:10.680Z,100511.41
2023-05-13T09:49:12.880Z,100507.78
2023-05-13T09:52:17.085Z,100516.41
2023-05-13T09:55:19.043Z,100524.56
2023-05-13T09:58:22.019Z,100508.50
2023-05-13T10:01:26.907Z,100514.13
2023-05-13T10:04:29.147Z,100527.13
2023-05-13T10:07:32.800Z,100509.38
2023-05-13T10:10:37.220Z,100530.63
2023-05-13T10:13:39.434Z,100528.22
2023-05-13T10:16:43.178Z,100521.09
2023-05-13T10:19:45.106Z,100521.47
2023-05-13T10:22:47.064Z,100518.88
2023-05-13T10:25:50.067Z,100512.72
2023-05-13T10:28:51.711Z,100515.72
2023-05-13T10:31:56.350Z,100502.19
2023-05-13T10:35:04.381Z,100497.66
2023-05-13T10:38:09.302Z,100504.94
2023-05-13T10:41:24.790Z,100504.00
2023-05-13T10:44:26.586Z,100492.56
2023-05-13T10:47:31.879Z,100495.16
2023-05-13T10:50:37.827Z,100490.72
2023-05-13T10:53:44.841Z,100496.84
2023-05-13T10:56:47.223Z,100499.91
2023-05-13T11:00:16.888Z,100501.59
2023-05-13T11:03:30.280Z,100491.91
2023-05-13T11:06:35.228Z,100478.13
2023-05-13T11:09:38.171Z,100481.03
2023-05-13T11:12:40.017Z,100489.06
2023-05-13T11:15:45.260Z,100466.19
2023-05-13T11:18:49.214Z,100462.25
2023-05-13T11:21:55.423Z,100465.34
2023-05-13T11:25:05.137Z,100458.47
2023-05-13T11:28:06.787Z,100465.31
2023-05-13T11:31:17.112Z,100464.84
2023-05-13T11:34:20.556Z,100469.09
2023-05-13T11:37:23.285Z,100458.72
2023-05-13T11:40:26.210Z,100459.19
2023-05-13T11:43:27.932Z,100457.69
2023-05-13T11:46:30.148Z,100457.69
2023-05-13T11:49:39.016Z,100459.44
2023-05-13T11:52:41.523Z,100458.41
2023-05-13T11:55:43.331Z,100456.81
2023-05-13T11:58:45.105Z,100448.50
2023-05-13T12:01:58.067Z,100457.06
2023-05-13T12:05:02.244Z,100447.13
2023-05-13T12:08:04.121Z,100446.53
2023-05-13T12:11:07.271Z,100442.03
2023-05-13T12:14:09.426Z,100451.88
2023-05-13T12:17:11.359Z,100429.75
2023-05-13T12:20:16.320Z,100450.06
2023-05-13T12:23:18.073Z,100451.56
2023-05-13T12:26:20.095Z,100438.66
2023-05-13T12:29:21.857Z,100442.34
2023-05-13T12:32:24.779Z,100442.09
2023-05-13T12:35:28.191Z,100443.59
2023-05-13T12:38:29.957Z,100444.84
2023-05-13T12:41:34.752Z,100446.06
2023-05-13T12:44:36.519Z,100448.88
2023-05-13T12:47:50.848Z,100447.72
2023-05-13T12:50:54.258Z,100451.75
2023-05-13T12:53:58.157Z,100452.59
2023-05-13T12:56:59.856Z,100455.75
2023-05-13T13:00:01.665Z,100454.91
2023-05-13T13:03:03.315Z,100450.69
2023-05-13T13:06:06.730Z,100458.22
2023-05-13T13:09:08.545Z,100465.91
2023-05-13T13:12:10.236Z,100457.09
2023-05-13T13:15:12.298Z,100457.88
2023-05-13T13:18:14.320Z,100455.25
2023-05-13T13:21:17.356Z,100452.22
2023-05-13T13:24:19.103Z,100457.13
2023-05-13T13:27:21.072Z,100458.41
2023-05-13T13:30:22.970Z,100456.22
2023-05-13T13:33:25.165Z,100450.75
2023-05-13T13:36:28.545Z,100459.84
2023-05-13T13:39:30.404Z,100462.75
2023-05-13T13:42:43.517Z,100455.81
2023-05-13T13:45:46.729Z,100455.13
2023-05-13T13:48:48.430Z,100441.63
2023-05-13T13:51:51.871Z,100440.31
2023-05-13T13:54:53.537Z,100440.72
2023-05-13T13:57:55.291Z,100443.88
2023-05-13T14:00:57.001Z,100438.94
2023-05-13T14:04:10.949Z,100430.41
2023-05-13T14:07:14.118Z,100432.69
2023-05-13T14:10:15.927Z,100436.63
2023-05-13T14:13:17.552Z,100434.06
2023-05-13T14:16:19.262Z,100423.66
2023-05-13T14:19:20.987Z,100428.72
2023-05-13T14:22:24.624Z,100431.16
2023-05-13T14:25:26.397Z,100431.88
2023-05-13T14:28:28.019Z,100421.78
2023-05-13T14:31:31.067Z,100419.34
2023-05-13T14:34:34.143Z,100414.56
2023-05-13T14:37:37.670Z,100410.56
2023-05-13T14:40:39.470Z,100411.72
2023-05-13T14:43:41.216Z,100419.22
2023-05-13T14:46:42.994Z,100410.31
2023-05-13T14:49:44.850Z,100416.03
2023-05-13T14:52:47.998Z,100416.31
2023-05-13T14:55:51.577Z,100413.56
2023-05-13T14:58:53.619Z,100424.19
2023-05-13T15:01:55.607Z,100411.97
2023-05-13T15:04:57.450Z,100412.66
2023-05-13T15:08:01.031Z,100411.81
2023-05-13T15:11:02.738Z,100417.19
2023-05-13T15:14:04.586Z,100411.16
2023-05-13T15:17:10.677Z,100400.59
2023-05-13T15:20:12.850Z,100397.44
2023-05-13T15:23:15.861Z,100396.56
2023-05-13T15:26:17.798Z,100397.69
2023-05-13T15:33:17.724Z,100407.69
2023-05-13T15:36:19.541Z,100409.75
2023-05-13T15:39:23.139Z,100401.59
2023-05-13T15:42:25.465Z,100406.66
2023-05-13T15:45:27.285Z,100411.50
2023-05-13T15:48:29.113Z,100423.41
2023-05-13T15:51:31.665Z,100424.31
2023-05-13T15:54:34.985Z,100425.34
2023-05-13T15:57:36.729Z,100431.66
2023-05-13T16:00:38.476Z,100433.88
2023-05-13T16:03:40.489Z,100428.09
2023-05-13T16:06:42.373Z,100431.06
2023-05-13T16:09:45.595Z,100430.00
2023-05-13T16:12:47.279Z,100431.56
2023-05-13T16:15:49.112Z,100434.47
2023-05-13T16:18:50.925Z,100433.25
2023-05-13T16:21:52.850Z,100430.34
2023-05-13T16:24:58.740Z,100424.88
2023-05-13T16:28:00.707Z,100408.88
2023-05-13T16:31:02.467Z,100411.94
2023-05-13T16:34:04.362Z,100424.34
2023-05-13T16:39:48.640Z,100413.13
2023-05-13T16:42:50.445Z,100412.19
2023-05-13T16:45:52.297Z,100415.44
2023-05-13T16:48:54.130Z,100406.16
2023-05-13T16:51:56.042Z,100405.97
2023-05-13T16:54:59.380Z,100409.19
2023-05-13T16:58:01.604Z,100400.81
2023-05-13T17:01:03.438Z,100401.41
2023-05-13T17:04:05.198Z,100403.06
2023-05-13T17:07:07.230Z,100396.78
2023-05-13T17:10:10.951Z,100398.84
2023-05-13T17:13:13.526Z,100394.31
2023-05-13T17:16:15.694Z,100391.41
2023-05-13T17:19:17.780Z,100398.72
2023-05-13T17:22:19.571Z,100399.28
2023-05-13T17:25:22.598Z,100400.75
2023-05-13T17:28:24.678Z,100405.19
2023-05-13T17:31:26.596Z,100401.66
2023-05-13T17:34:28.364Z,100402.81
2023-05-13T17:37:30.181Z,100406.81
2023-05-13T17:40:33.768Z,100403.19
2023-05-13T17:43:36.266Z,100405.59
2023-05-13T17:46:38.109Z,100410.56
2023-05-13T17:49:39.813Z,100406.88
2023-05-13T17:52:41.594Z,100408.53
2023-05-13T17:55:44.769Z,100409.94
2023-05-13T17:58:46.448Z,100414.44
2023-05-13T18:01:48.189Z,100413.47
2023-05-13T18:04:49.898Z,100409.72
2023-05-13T18:07:51.599Z,100408.09
2023-05-13T18:10:54.602Z,100415.59
2023-05-13T18:13:56.337Z,100413.00
2023-05-13T18:16:58.264Z,100420.19
2023-05-13T18:19:59.935Z,100420.03
2023-05-13T18:23:01.699Z,100416.69
2023-05-13T18:26:04.943Z,100423.06
2023-05-13T18:29:06.898Z,100430.00
2023-05-13T18:32:08.607Z,100426.09
2023-05-13T18:35:10.575Z,100433.81
2023-05-13T18:38:15.356Z,100436.25
2023-05-13T18:41:18.475Z,100436.34
2023-05-13T18:44:20.211Z,100450.28
2023-05-13T18:47:21.959Z,100438.66
2023-05-13T18:50:24.879Z,100442.00
2023-05-13T18:53:26.697Z,100444.97
2023-05-13T18:56:30.908Z,100457.13
2023-05-13T18:59:32.805Z,100451.09
2023-05-13T19:02:35.233Z,100465.69
2023-05-13T19:05:37.274Z,100465.91
2023-05-13T19:08:38.889Z,100465.34
2023-05-13T19:11:42.242Z,100476.25
2023-05-13T19:14:44.099Z,100472.88
2023-05-13T19:17:46.262Z,100475.78
2023-05-13T19:20:48.021Z,100481.25
2023-05-13T19:23:50.145Z,100481.81
2023-05-13T19:26:53.530Z,100477.84
2023-05-13T19:29:55.185Z,100487.25
2023-05-13T19:32:57.132Z,100494.56
2023-05-13T19:35:58.896Z,100488.56
2023-05-13T19:39:00.679Z,100497.81
2023-05-13T19:42:03.956Z,100504.81
2023-05-13T19:45:06.614Z,100499.84
2023-05-13T19:48:08.528Z,100503.50
2023-05-13T19:51:10.482Z,100499.41
2023-05-13T19:54:13.488Z,100492.81
2023-05-13T19:57:16.715Z,100495.72
2023-05-13T20:00:18.822Z,100490.56
2023-05-13T20:03:20.813Z,100494.00
2023-05-13T20:06:22.689Z,100500.34
2023-05-13T20:09:25.475Z,100501.25
2023-05-13T20:12:28.480Z,100507.22
2023-05-13T20:15:30.449Z,100509.91
2023-05-13T20:18:32.364Z,100501.84
2023-05-13T20:21:34.511Z,100508.09
2023-05-13T20:24:36.409Z,100508.50
2023-05-13T20:27:39.463Z,100502.94
2023-05-13T20:30:42.183Z,100507.06
2023-05-13T20:33:43.927Z,100508.88
2023-05-13T20:36:45.791Z,100506.53
2023-05-13T20:39:47.682Z,100511.53
2023-05-13T20:42:50.741Z,100511.84
2023-05-13T20:45:52.433Z,100503.00
2023-05-13T20:48:54.362Z,100502.13
2023-05-13T20:52:01.484Z,100504.22
2023-05-13T20:55:03.405Z,100499.91
2023-05-13T20:58:06.395Z,100498.47
2023-05-13T21:01:08.083Z,100494.56
2023-05-13T21:04:10.635Z,100494.03
2023-05-13T21:07:12.593Z,100492.19
2023-05-13T21:10:14.269Z,100500.09
2023-05-13T21:13:17.397Z,100494.56
2023-05-13T21:16:19.075Z,100493.75
2023-05-13T21:19:21.413Z,100482.28
2023-05-13T21:22:23.335Z,100492.81
2023-05-13T21:25:25.099Z,100485.69
2023-05-13T21:28:28.813Z,100484.75
2023-05-13T21:31:30.669Z,100496.53
2023-05-13T21:34:32.414Z,100489.50
2023-05-13T21:37:34.264Z,100489.38
2023-05-13T21:40:36.189Z,100488.94
2023-05-13T21:43:39.181Z,100484.53
2023-05-13T21:46:40.847Z,100488.84
2023-05-13T21:49:42.631Z,100480.03
2023-05-13T21:52:44.446Z,100479.59
2023-05-13T21:55:46.112Z,100483.25
2023-05-13T21:58:50.579Z,100488.50
2023-05-13T22:01:52.303Z,100492.56
2023-05-13T22:04:54.212Z,100485.22
2023-05-13T22:07:56.049Z,100481.94
2023-05-13T22:10:57.885Z,100493.84
2023-05-13T22:14:01.305Z,100487.41
2023-05-13T22:17:09.768Z,100482.66
2023-05-13T22:20:12.650Z,100481.69
2023-05-13T22:23:14.284Z,100481.94
2023-05-13T22:26:16.059Z,100477.94
2023-05-13T22:29:19.274Z,100474.59
2023-05-13T22:32:20.945Z,100473.75
2023-05-13T22:35:22.868Z,100476.53
2023-05-13T22:38:24.544Z,100478.75
2023-05-13T22:41:26.746Z,100469.91
2023-05-13T22:44:29.924Z,100462.09
2023-05-13T22:47:31.941Z,100458.69
2023-05-13T22:50:33.656Z,100465.03
2023-05-13T22:53:35.341Z,100449.13
2023-05-13T22:56:37.166Z,100457.59
2023-05-13T22:59:40.269Z,100451.03
2023-05-13T23:02:42.040Z,100449.97
2023-05-13T23:05:44.210Z,100453.00
2023-05-13T23:08:45.867Z,100440.72
2023-05-13T23:11:47.839Z,100445.34
2023-05-13T23:14:50.981Z,100437.03
2023-05-13T23:17:52.772Z,100439.56
2023-05-13T23:20:55.930Z,100437.56
2023-05-13T23:23:57.959Z,100439.28
2023-05-13T23:26:59.595Z,100440.41
2023-05-13T23:30:03.075Z,100440.53
2023-05-13T23:33:04.880Z,100436.97
2023-05-13T23:36:26.444Z,100440.28
2023-05-13T23:39:28.242Z,100437.25
2023-05-13T23:42:29.827Z,100435.28
2023-05-13T23:45:32.964Z,100430.81
2023-05-13T23:48:34.797Z,100434.88
2023-05-13T23:51:36.551Z,100432.94
2023-05-13T23:54:38.152Z,100425.94
2023-05-13T23:57:39.963Z,100419.75
